sensor_id;sensor_type;location;lat;lon;timestamp;temperature;humidity
20057;DHT22;10189;49.546;7.906;2023-02-15T00:01:46;-1.20;99.90
20057;DHT22;10189;49.546;7.906;2023-02-15T00:04:15;-1.20;99.90
20057;DHT22;10189;49.546;7.906;2023-02-15T00:06:42;-1.10;99.90
20057;DHT22;10189;49.546;7.906;2023-02-15T00:09:09;-1.30;99.90
20057;DHT22;10189;49.546;7.906;2023-02-15T00:11:36;-1.30;99.90
20057;DHT22;10189;49.546;7.906;2023-02-15T00:14:07;-1.30;99.90
20057;DHT22;10189;49.546;7.906;2023-02-15T00:16:36;-1.30;99.90
20057;DHT22;10189;49.546;7.906;2023-02-15T00:19:04;-1.30;99.90
20057;DHT22;10189;49.546;7.906;2023-02-15T00:21:32;-1.30;99.90
20057;DHT22;10189;49.546;7.906;2023-02-15T00:24:01;-1.30;99.90
20057;DHT22;10189;49.546;7.906;2023-02-15T00:26:29;-1.30;99.90
20057;DHT22;10189;49.546;7.906;2023-02-15T00:28:55;-1.30;99.90
20057;DHT22;10189;49.546;7.906;2023-02-15T00:31:29;-1.20;99.90
20057;DHT22;10189;49.546;7.906;2023-02-15T00:34:09;-1.10;99.90
20057;DHT22;10189;49.546;7.906;2023-02-15T00:36:38;-1.00;99.90
20057;DHT22;10189;49.546;7.906;2023-02-15T00:39:05;-1.00;99.90
20057;DHT22;10189;49.546;7.906;2023-02-15T00:41:32;-1.00;99.90
20057;DHT22;10189;49.546;7.906;2023-02-15T00:43:58;-1.10;99.90
20057;DHT22;10189;49.546;7.906;2023-02-15T00:46:24;-1.00;99.90
20057;DHT22;10189;49.546;7.906;2023-02-15T00:48:50;-1.00;99.90
20057;DHT22;10189;49.546;7.906;2023-02-15T00:51:16;-1.00;99.90
20057;DHT22;10189;49.546;7.906;2023-02-15T00:53:43;-1.10;99.90
20057;DHT22;10189;49.546;7.906;2023-02-15T00:56:10;-1.10;99.90
20057;DHT22;10189;49.546;7.906;2023-02-15T00:58:36;-1.10;99.90
20057;DHT22;10189;49.546;7.906;2023-02-15T01:01:08;-1.20;99.90
20057;DHT22;10189;49.546;7.906;2023-02-15T01:03:39;-1.10;99.90
20057;DHT22;10189;49.546;7.906;2023-02-15T01:06:09;-1.20;99.90
20057;DHT22;10189;49.546;7.906;2023-02-15T01:08:35;-1.10;99.90
20057;DHT22;10189;49.546;7.906;2023-02-15T01:11:08;-1.20;99.90
20057;DHT22;10189;49.546;7.906;2023-02-15T01:13:37;-1.10;99.90
20057;DHT22;10189;49.546;7.906;2023-02-15T01:16:05;-1.10;99.90
20057;DHT22;10189;49.546;7.906;2023-02-15T01:18:32;-1.10;99.90
20057;DHT22;10189;49.546;7.906;2023-02-15T01:20:58;-1.10;99.90
20057;DHT22;10189;49.546;7.906;2023-02-15T01:23:25;-1.10;99.90
20057;DHT22;10189;49.546;7.906;2023-02-15T01:25:50;-1.10;99.90
20057;DHT22;10189;49.546;7.906;2023-02-15T01:28:16;-1.00;99.90
20057;DHT22;10189;49.546;7.906;2023-02-15T01:30:42;-1.00;99.90
20057;DHT22;10189;49.546;7.906;2023-02-15T01:33:10;-1.00;99.90
20057;DHT22;10189;49.546;7.906;2023-02-15T01:35:43;-1.00;99.90
20057;DHT22;10189;49.546;7.906;2023-02-15T01:38:13;-0.90;99.90
20057;DHT22;10189;49.546;7.906;2023-02-15T01:40:39;-0.90;99.90
20057;DHT22;10189;49.546;7.906;2023-02-15T01:43:10;-0.90;99.90
20057;DHT22;10189;49.546;7.906;2023-02-15T01:45:38;-1.00;99.90
20057;DHT22;10189;49.546;7.906;2023-02-15T01:50:59;-1.10;99.90
20057;DHT22;10189;49.546;7.906;2023-02-15T01:53:34;-1.10;99.90
20057;DHT22;10189;49.546;7.906;2023-02-15T01:56:23;-1.10;99.90
20057;DHT22;10189;49.546;7.906;2023-02-15T01:58:54;-1.10;99.90
20057;DHT22;10189;49.546;7.906;2023-02-15T02:01:24;-1.10;99.90
20057;DHT22;10189;49.546;7.906;2023-02-15T02:04:07;-1.00;99.90
20057;DHT22;10189;49.546;7.906;2023-02-15T02:06:46;-0.90;99.90
20057;DHT22;10189;49.546;7.906;2023-02-15T02:09:14;-1.00;99.90
20057;DHT22;10189;49.546;7.906;2023-02-15T02:11:42;-0.90;99.90
20057;DHT22;10189;49.546;7.906;2023-02-15T02:14:11;-0.90;99.90
20057;DHT22;10189;49.546;7.906;2023-02-15T02:22:29;-0.90;99.90
20057;DHT22;10189;49.546;7.906;2023-02-15T02:31:43;-0.80;99.90
20057;DHT22;10189;49.546;7.906;2023-02-15T02:34:31;-0.80;99.90
20057;DHT22;10189;49.546;7.906;2023-02-15T02:42:42;-0.90;99.90
20057;DHT22;10189;49.546;7.906;2023-02-15T02:45:15;-0.90;99.90
20057;DHT22;10189;49.546;7.906;2023-02-15T02:47:56;-1.00;99.90
20057;DHT22;10189;49.546;7.906;2023-02-15T02:50:30;-0.90;99.90
20057;DHT22;10189;49.546;7.906;2023-02-15T02:52:57;-0.90;99.90
20057;DHT22;10189;49.546;7.906;2023-02-15T02:55:41;-0.90;99.90
20057;DHT22;10189;49.546;7.906;2023-02-15T02:58:48;-0.90;99.90
20057;DHT22;10189;49.546;7.906;2023-02-15T03:01:29;-0.90;99.90
20057;DHT22;10189;49.546;7.906;2023-02-15T03:04:25;-0.90;99.90
20057;DHT22;10189;49.546;7.906;2023-02-15T03:07:05;-1.00;99.90
20057;DHT22;10189;49.546;7.906;2023-02-15T03:09:38;-1.10;99.90
20057;DHT22;10189;49.546;7.906;2023-02-15T03:12:18;-1.10;99.90
20057;DHT22;10189;49.546;7.906;2023-02-15T03:14:53;-1.10;99.90
20057;DHT22;10189;49.546;7.906;2023-02-15T03:17:27;-1.10;99.90
20057;DHT22;10189;49.546;7.906;2023-02-15T03:20:03;-1.10;99.90
20057;DHT22;10189;49.546;7.906;2023-02-15T03:22:37;-1.10;99.90
20057;DHT22;10189;49.546;7.906;2023-02-15T03:25:17;-1.10;99.90
20057;DHT22;10189;49.546;7.906;2023-02-15T03:28:11;-1.10;99.90
20057;DHT22;10189;49.546;7.906;2023-02-15T03:30:43;-1.10;99.90
20057;DHT22;10189;49.546;7.906;2023-02-15T03:33:13;-1.10;99.90
20057;DHT22;10189;49.546;7.906;2023-02-15T03:36:02;-1.10;99.90
20057;DHT22;10189;49.546;7.906;2023-02-15T03:38:50;-1.10;99.90
20057;DHT22;10189;49.546;7.906;2023-02-15T03:41:27;-1.10;99.90
20057;DHT22;10189;49.546;7.906;2023-02-15T03:44:06;-1.20;99.90
20057;DHT22;10189;49.546;7.906;2023-02-15T03:46:43;-1.20;99.90
20057;DHT22;10189;49.546;7.906;2023-02-15T03:49:29;-1.20;99.90
20057;DHT22;10189;49.546;7.906;2023-02-15T03:52:04;-1.30;99.90
20057;DHT22;10189;49.546;7.906;2023-02-15T03:54:34;-1.30;99.90
20057;DHT22;10189;49.546;7.906;2023-02-15T03:57:22;-1.30;99.90
20057;DHT22;10189;49.546;7.906;2023-02-15T04:05:43;-1.30;99.90
20057;DHT22;10189;49.546;7.906;2023-02-15T04:08:10;-1.30;99.90
20057;DHT22;10189;49.546;7.906;2023-02-15T04:10:37;-1.30;99.90
20057;DHT22;10189;49.546;7.906;2023-02-15T04:13:22;-1.50;99.90
20057;DHT22;10189;49.546;7.906;2023-02-15T04:15:50;-1.50;99.90
20057;DHT22;10189;49.546;7.906;2023-02-15T04:21:28;-1.50;99.90
20057;DHT22;10189;49.546;7.906;2023-02-15T04:24:14;-1.50;99.90
20057;DHT22;10189;49.546;7.906;2023-02-15T04:27:00;-1.60;99.90
20057;DHT22;10189;49.546;7.906;2023-02-15T04:29:27;-1.60;99.90
20057;DHT22;10189;49.546;7.906;2023-02-15T04:31:54;-1.50;99.90
20057;DHT22;10189;49.546;7.906;2023-02-15T04:34:22;-1.50;99.90
20057;DHT22;10189;49.546;7.906;2023-02-15T04:36:48;-1.50;99.90
20057;DHT22;10189;49.546;7.906;2023-02-15T04:39:14;-1.60;99.90
20057;DHT22;10189;49.546;7.906;2023-02-15T04:41:41;-1.70;99.90
20057;DHT22;10189;49.546;7.906;2023-02-15T04:44:07;-1.60;99.90
20057;DHT22;10189;49.546;7.906;2023-02-15T04:46:33;-1.70;99.90
20057;DHT22;10189;49.546;7.906;2023-02-15T04:48:59;-1.60;99.90
20057;DHT22;10189;49.546;7.906;2023-02-15T04:51:25;-1.50;99.90
20057;DHT22;10189;49.546;7.906;2023-02-15T04:53:51;-1.40;99.90
20057;DHT22;10189;49.546;7.906;2023-02-15T04:56:19;-1.50;99.90
20057;DHT22;10189;49.546;7.906;2023-02-15T04:58:45;-1.40;99.90
20057;DHT22;10189;49.546;7.906;2023-02-15T05:01:11;-1.30;99.90
20057;DHT22;10189;49.546;7.906;2023-02-15T05:03:37;-1.30;99.90
20057;DHT22;10189;49.546;7.906;2023-02-15T05:06:04;-1.40;99.90
20057;DHT22;10189;49.546;7.906;2023-02-15T05:08:30;-1.40;99.90
20057;DHT22;10189;49.546;7.906;2023-02-15T05:10:56;-1.50;99.90
20057;DHT22;10189;49.546;7.906;2023-02-15T05:13:23;-1.60;99.90
20057;DHT22;10189;49.546;7.906;2023-02-15T05:15:51;-1.60;99.90
20057;DHT22;10189;49.546;7.906;2023-02-15T05:18:19;-1.60;99.90
20057;DHT22;10189;49.546;7.906;2023-02-15T05:20:46;-1.60;99.90
20057;DHT22;10189;49.546;7.906;2023-02-15T05:23:13;-1.50;99.90
20057;DHT22;10189;49.546;7.906;2023-02-15T05:25:39;-1.50;99.90
20057;DHT22;10189;49.546;7.906;2023-02-15T05:28:26;-1.60;99.90
20057;DHT22;10189;49.546;7.906;2023-02-15T05:31:03;-1.60;99.90
20057;DHT22;10189;49.546;7.906;2023-02-15T05:33:29;-1.50;99.90
20057;DHT22;10189;49.546;7.906;2023-02-15T05:35:55;-1.40;99.90
20057;DHT22;10189;49.546;7.906;2023-02-15T05:38:21;-1.40;99.90
20057;DHT22;10189;49.546;7.906;2023-02-15T05:40:47;-1.30;99.90
20057;DHT22;10189;49.546;7.906;2023-02-15T05:43:13;-1.40;99.90
20057;DHT22;10189;49.546;7.906;2023-02-15T05:45:39;-1.40;99.90
20057;DHT22;10189;49.546;7.906;2023-02-15T05:48:05;-1.50;99.90
20057;DHT22;10189;49.546;7.906;2023-02-15T05:50:30;-1.50;99.90
20057;DHT22;10189;49.546;7.906;2023-02-15T05:52:58;-1.60;99.90
20057;DHT22;10189;49.546;7.906;2023-02-15T05:55:24;-1.50;99.90
20057;DHT22;10189;49.546;7.906;2023-02-15T05:57:50;-1.50;99.90
20057;DHT22;10189;49.546;7.906;2023-02-15T06:00:16;-1.50;99.90
20057;DHT22;10189;49.546;7.906;2023-02-15T06:02:43;-1.50;99.90
20057;DHT22;10189;49.546;7.906;2023-02-15T06:05:08;-1.40;99.90
20057;DHT22;10189;49.546;7.906;2023-02-15T06:07:34;-1.40;99.90
20057;DHT22;10189;49.546;7.906;2023-02-15T06:10:00;-1.40;99.90
20057;DHT22;10189;49.546;7.906;2023-02-15T06:12:26;-1.40;99.90
20057;DHT22;10189;49.546;7.906;2023-02-15T06:14:52;-1.40;99.90
20057;DHT22;10189;49.546;7.906;2023-02-15T06:17:18;-1.40;99.90
20057;DHT22;10189;49.546;7.906;2023-02-15T06:19:44;-1.30;99.90
20057;DHT22;10189;49.546;7.906;2023-02-15T06:22:10;-1.30;99.90
20057;DHT22;10189;49.546;7.906;2023-02-15T06:24:36;-1.40;99.90
20057;DHT22;10189;49.546;7.906;2023-02-15T06:27:01;-1.40;99.90
20057;DHT22;10189;49.546;7.906;2023-02-15T06:29:27;-1.40;99.90
20057;DHT22;10189;49.546;7.906;2023-02-15T06:31:53;-1.40;99.90
20057;DHT22;10189;49.546;7.906;2023-02-15T06:34:19;-1.40;99.90
20057;DHT22;10189;49.546;7.906;2023-02-15T06:36:45;-1.30;99.90
20057;DHT22;10189;49.546;7.906;2023-02-15T06:39:10;-1.30;99.90
20057;DHT22;10189;49.546;7.906;2023-02-15T06:41:36;-1.30;99.90
20057;DHT22;10189;49.546;7.906;2023-02-15T06:44:02;-1.30;99.90
20057;DHT22;10189;49.546;7.906;2023-02-15T06:46:28;-1.30;99.90
20057;DHT22;10189;49.546;7.906;2023-02-15T06:48:54;-1.40;99.90
20057;DHT22;10189;49.546;7.906;2023-02-15T06:51:20;-1.40;99.90
20057;DHT22;10189;49.546;7.906;2023-02-15T06:53:46;-1.50;99.90
20057;DHT22;10189;49.546;7.906;2023-02-15T06:56:12;-1.60;99.90
20057;DHT22;10189;49.546;7.906;2023-02-15T06:58:39;-1.60;99.90
20057;DHT22;10189;49.546;7.906;2023-02-15T07:01:07;-1.60;99.90
20057;DHT22;10189;49.546;7.906;2023-02-15T07:03:35;-1.50;99.90
20057;DHT22;10189;49.546;7.906;2023-02-15T07:06:03;-1.50;99.90
20057;DHT22;10189;49.546;7.906;2023-02-15T07:08:37;-1.50;99.90
20057;DHT22;10189;49.546;7.906;2023-02-15T07:11:04;-1.50;99.90
20057;DHT22;10189;49.546;7.906;2023-02-15T07:13:50;-1.50;99.90
20057;DHT22;10189;49.546;7.906;2023-02-15T07:16:18;-1.50;99.90
20057;DHT22;10189;49.546;7.906;2023-02-15T07:18:44;-1.40;99.90
20057;DHT22;10189;49.546;7.906;2023-02-15T07:21:10;-1.30;99.90
20057;DHT22;10189;49.546;7.906;2023-02-15T07:23:37;-1.30;99.90
20057;DHT22;10189;49.546;7.906;2023-02-15T07:26:05;-1.20;99.90
20057;DHT22;10189;49.546;7.906;2023-02-15T07:28:33;-1.20;99.90
20057;DHT22;10189;49.546;7.906;2023-02-15T07:31:03;-1.30;99.90
20057;DHT22;10189;49.546;7.906;2023-02-15T07:33:31;-1.40;99.90
20057;DHT22;10189;49.546;7.906;2023-02-15T07:35:59;-1.50;99.90
20057;DHT22;10189;49.546;7.906;2023-02-15T07:38:31;-1.50;99.90
20057;DHT22;10189;49.546;7.906;2023-02-15T07:40:59;-1.60;99.90
20057;DHT22;10189;49.546;7.906;2023-02-15T07:43:27;-1.50;99.90
20057;DHT22;10189;49.546;7.906;2023-02-15T07:46:05;-1.30;99.90
20057;DHT22;10189;49.546;7.906;2023-02-15T07:48:34;-1.40;99.90
20057;DHT22;10189;49.546;7.906;2023-02-15T07:51:01;-1.50;99.90
20057;DHT22;10189;49.546;7.906;2023-02-15T07:53:29;-1.30;99.90
20057;DHT22;10189;49.546;7.906;2023-02-15T07:56:03;-1.10;99.90
20057;DHT22;10189;49.546;7.906;2023-02-15T07:58:32;-1.10;99.90
20057;DHT22;10189;49.546;7.906;2023-02-15T08:01:36;-1.10;99.90
20057;DHT22;10189;49.546;7.906;2023-02-15T08:04:04;-1.10;99.90
20057;DHT22;10189;49.546;7.906;2023-02-15T08:06:33;-1.00;99.90
20057;DHT22;10189;49.546;7.906;2023-02-15T08:09:03;-1.10;99.90
20057;DHT22;10189;49.546;7.906;2023-02-15T08:11:33;-1.20;99.90
20057;DHT22;10189;49.546;7.906;2023-02-15T08:14:21;-1.30;99.90
20057;DHT22;10189;49.546;7.906;2023-02-15T08:16:50;-1.10;99.90
20057;DHT22;10189;49.546;7.906;2023-02-15T08:19:24;-1.10;99.90
20057;DHT22;10189;49.546;7.906;2023-02-15T08:21:57;-1.00;99.90
20057;DHT22;10189;49.546;7.906;2023-02-15T08:24:26;-0.90;99.90
20057;DHT22;10189;49.546;7.906;2023-02-15T08:26:54;-0.60;99.90
20057;DHT22;10189;49.546;7.906;2023-02-15T08:29:22;-0.50;99.90
20057;DHT22;10189;49.546;7.906;2023-02-15T08:31:53;-0.40;99.90
20057;DHT22;10189;49.546;7.906;2023-02-15T08:34:21;-0.20;99.90
20057;DHT22;10189;49.546;7.906;2023-02-15T08:36:47;-0.10;99.90
20057;DHT22;10189;49.546;7.906;2023-02-15T08:39:14;-0.10;99.90
20057;DHT22;10189;49.546;7.906;2023-02-15T08:41:46;0.00;99.90
20057;DHT22;10189;49.546;7.906;2023-02-15T08:44:15;0.10;99.90
20057;DHT22;10189;49.546;7.906;2023-02-15T08:46:44;0.00;99.90
20057;DHT22;10189;49.546;7.906;2023-02-15T08:49:13;0.10;99.90
20057;DHT22;10189;49.546;7.906;2023-02-15T08:51:42;0.20;99.90
20057;DHT22;10189;49.546;7.906;2023-02-15T08:54:10;0.40;99.90
20057;DHT22;10189;49.546;7.906;2023-02-15T08:56:41;0.50;99.90
20057;DHT22;10189;49.546;7.906;2023-02-15T08:59:13;0.50;99.90
20057;DHT22;10189;49.546;7.906;2023-02-15T09:01:41;0.40;99.90
20057;DHT22;10189;49.546;7.906;2023-02-15T09:04:08;0.60;99.90
20057;DHT22;10189;49.546;7.906;2023-02-15T09:06:35;0.60;99.90
20057;DHT22;10189;49.546;7.906;2023-02-15T09:09:03;0.70;99.90
20057;DHT22;10189;49.546;7.906;2023-02-15T09:11:32;0.70;99.90
20057;DHT22;10189;49.546;7.906;2023-02-15T09:14:06;0.90;99.90
20057;DHT22;10189;49.546;7.906;2023-02-15T09:16:36;0.90;99.90
20057;DHT22;10189;49.546;7.906;2023-02-15T09:19:04;1.10;99.90
20057;DHT22;10189;49.546;7.906;2023-02-15T09:21:31;1.10;99.90
20057;DHT22;10189;49.546;7.906;2023-02-15T09:24:01;1.30;99.90
20057;DHT22;10189;49.546;7.906;2023-02-15T09:26:31;1.20;98.90
20057;DHT22;10189;49.546;7.906;2023-02-15T09:29:00;1.10;99.90
20057;DHT22;10189;49.546;7.906;2023-02-15T09:31:31;1.00;99.90
20057;DHT22;10189;49.546;7.906;2023-02-15T09:34:04;0.90;99.90
20057;DHT22;10189;49.546;7.906;2023-02-15T09:36:35;1.10;99.90
20057;DHT22;10189;49.546;7.906;2023-02-15T09:50:14;1.70;96.80
20057;DHT22;10189;49.546;7.906;2023-02-15T09:55:47;1.30;95.90
20057;DHT22;10189;49.546;7.906;2023-02-15T10:01:06;1.10;98.30
20057;DHT22;10189;49.546;7.906;2023-02-15T10:23:58;1.30;96.90
20057;DHT22;10189;49.546;7.906;2023-02-15T10:26:49;1.50;99.00
20057;DHT22;10189;49.546;7.906;2023-02-15T10:29:36;1.80;97.70
20057;DHT22;10189;49.546;7.906;2023-02-15T10:35:03;2.40;94.40
20057;DHT22;10189;49.546;7.906;2023-02-15T10:38:09;2.50;94.90
20057;DHT22;10189;49.546;7.906;2023-02-15T10:52:24;2.90;88.40
20057;DHT22;10189;49.546;7.906;2023-02-15T10:55:15;2.70;90.20
20057;DHT22;10189;49.546;7.906;2023-02-15T11:00:36;2.70;92.00
20057;DHT22;10189;49.546;7.906;2023-02-15T11:06:11;2.60;90.90
20057;DHT22;10189;49.546;7.906;2023-02-15T11:08:47;2.90;91.00
20057;DHT22;10189;49.546;7.906;2023-02-15T11:11:27;3.10;90.70
20057;DHT22;10189;49.546;7.906;2023-02-15T11:14:00;3.50;92.30
20057;DHT22;10189;49.546;7.906;2023-02-15T11:16:40;3.90;89.80
20057;DHT22;10189;49.546;7.906;2023-02-15T11:19:21;4.10;87.60
20057;DHT22;10189;49.546;7.906;2023-02-15T11:22:00;4.40;88.00
20057;DHT22;10189;49.546;7.906;2023-02-15T11:24:31;4.50;85.30
20057;DHT22;10189;49.546;7.906;2023-02-15T11:27:22;4.40;85.60
20057;DHT22;10189;49.546;7.906;2023-02-15T11:30:03;4.20;86.40
20057;DHT22;10189;49.546;7.906;2023-02-15T11:32:47;4.20;86.90
20057;DHT22;10189;49.546;7.906;2023-02-15T11:35:43;4.10;87.60
20057;DHT22;10189;49.546;7.906;2023-02-15T11:38:22;4.20;86.60
20057;DHT22;10189;49.546;7.906;2023-02-15T11:40:55;3.60;87.20
20057;DHT22;10189;49.546;7.906;2023-02-15T11:46:10;3.10;90.40
20057;DHT22;10189;49.546;7.906;2023-02-15T11:48:38;3.10;92.70
20057;DHT22;10189;49.546;7.906;2023-02-15T11:51:05;3.20;94.20
20057;DHT22;10189;49.546;7.906;2023-02-15T11:53:33;3.20;93.40
20057;DHT22;10189;49.546;7.906;2023-02-15T11:56:02;3.40;93.90
20057;DHT22;10189;49.546;7.906;2023-02-15T12:01:38;3.60;92.00
20057;DHT22;10189;49.546;7.906;2023-02-15T12:09:55;3.70;93.40
20057;DHT22;10189;49.546;7.906;2023-02-15T12:12:32;3.60;93.20
20057;DHT22;10189;49.546;7.906;2023-02-15T12:15:10;3.70;93.80
20057;DHT22;10189;49.546;7.906;2023-02-15T12:17:52;3.80;93.50
20057;DHT22;10189;49.546;7.906;2023-02-15T12:20:21;3.80;93.60
20057;DHT22;10189;49.546;7.906;2023-02-15T12:23:01;3.80;93.80
20057;DHT22;10189;49.546;7.906;2023-02-15T12:25:51;3.60;95.00
20057;DHT22;10189;49.546;7.906;2023-02-15T12:31:01;3.80;96.10
20057;DHT22;10189;49.546;7.906;2023-02-15T12:33:38;3.90;96.50
20057;DHT22;10189;49.546;7.906;2023-02-15T12:36:20;4.00;96.50
20057;DHT22;10189;49.546;7.906;2023-02-15T12:42:00;4.40;95.00
20057;DHT22;10189;49.546;7.906;2023-02-15T12:47:19;4.60;93.50
20057;DHT22;10189;49.546;7.906;2023-02-15T12:50:09;4.70;93.50
20057;DHT22;10189;49.546;7.906;2023-02-15T12:52:46;4.80;92.90
20057;DHT22;10189;49.546;7.906;2023-02-15T12:55:24;4.90;92.10
20057;DHT22;10189;49.546;7.906;2023-02-15T13:01:03;5.00;93.20
20057;DHT22;10189;49.546;7.906;2023-02-15T13:03:53;5.20;92.80
20057;DHT22;10189;49.546;7.906;2023-02-15T13:06:22;5.20;91.50
20057;DHT22;10189;49.546;7.906;2023-02-15T13:08:51;5.30;90.80
20057;DHT22;10189;49.546;7.906;2023-02-15T13:11:22;5.40;90.60
20057;DHT22;10189;49.546;7.906;2023-02-15T13:14:00;5.50;90.40
20057;DHT22;10189;49.546;7.906;2023-02-15T13:16:47;5.70;89.60
20057;DHT22;10189;49.546;7.906;2023-02-15T13:22:35;5.80;89.40
20057;DHT22;10189;49.546;7.906;2023-02-15T13:25:19;5.90;89.90
20057;DHT22;10189;49.546;7.906;2023-02-15T13:28:17;6.10;88.70
20057;DHT22;10189;49.546;7.906;2023-02-15T13:30:49;6.20;88.20
20057;DHT22;10189;49.546;7.906;2023-02-15T13:36:07;6.30;88.00
20057;DHT22;10189;49.546;7.906;2023-02-15T13:44:57;6.30;86.30
20057;DHT22;10189;49.546;7.906;2023-02-15T13:54:07;6.00;88.30
20057;DHT22;10189;49.546;7.906;2023-02-15T13:59:57;6.20;88.10
20057;DHT22;10189;49.546;7.906;2023-02-15T14:15:24;6.00;88.70
20057;DHT22;10189;49.546;7.906;2023-02-15T14:21:09;6.10;87.90
20057;DHT22;10189;49.546;7.906;2023-02-15T14:23:52;6.10;88.10
20057;DHT22;10189;49.546;7.906;2023-02-15T14:29:41;5.80;88.50
20057;DHT22;10189;49.546;7.906;2023-02-15T14:32:18;5.80;88.80
20057;DHT22;10189;49.546;7.906;2023-02-15T14:34:57;5.70;89.00
20057;DHT22;10189;49.546;7.906;2023-02-15T14:49:26;5.40;90.20
20057;DHT22;10189;49.546;7.906;2023-02-15T14:52:06;5.30;90.30
20057;DHT22;10189;49.546;7.906;2023-02-15T14:59:54;5.10;91.30
20057;DHT22;10189;49.546;7.906;2023-02-15T15:07:26;4.80;91.30
20057;DHT22;10189;49.546;7.906;2023-02-15T15:17:57;4.10;94.10
20057;DHT22;10189;49.546;7.906;2023-02-15T15:38:27;3.50;97.80
20057;DHT22;10189;49.546;7.906;2023-02-15T15:46:58;3.00;99.70
20057;DHT22;10189;49.546;7.906;2023-02-15T15:49:46;2.80;99.90
20057;DHT22;10189;49.546;7.906;2023-02-15T15:52:18;2.50;99.90
20057;DHT22;10189;49.546;7.906;2023-02-15T15:54:49;2.30;99.90
20057;DHT22;10189;49.546;7.906;2023-02-15T15:57:39;2.20;99.90
20057;DHT22;10189;49.546;7.906;2023-02-15T16:00:25;2.00;99.90
20057;DHT22;10189;49.546;7.906;2023-02-15T16:03:14;1.90;99.90
20057;DHT22;10189;49.546;7.906;2023-02-15T16:05:45;1.70;99.90
20057;DHT22;10189;49.546;7.906;2023-02-15T16:08:11;1.60;99.90
20057;DHT22;10189;49.546;7.906;2023-02-15T16:10:37;1.60;99.90
20057;DHT22;10189;49.546;7.906;2023-02-15T16:13:05;1.40;99.90
20057;DHT22;10189;49.546;7.906;2023-02-15T16:15:46;1.30;99.90
20057;DHT22;10189;49.546;7.906;2023-02-15T16:18:20;1.30;99.90
20057;DHT22;10189;49.546;7.906;2023-02-15T16:21:00;1.20;99.90
20057;DHT22;10189;49.546;7.906;2023-02-15T16:24:04;1.20;99.90
20057;DHT22;10189;49.546;7.906;2023-02-15T16:29:43;1.00;99.90
20057;DHT22;10189;49.546;7.906;2023-02-15T16:32:19;0.90;99.90
20057;DHT22;10189;49.546;7.906;2023-02-15T16:34:59;0.70;99.90
20057;DHT22;10189;49.546;7.906;2023-02-15T16:37:34;0.60;99.90
20057;DHT22;10189;49.546;7.906;2023-02-15T16:40:00;0.50;99.90
20057;DHT22;10189;49.546;7.906;2023-02-15T16:42:27;0.50;99.90
20057;DHT22;10189;49.546;7.906;2023-02-15T16:45:06;0.40;99.90
20057;DHT22;10189;49.546;7.906;2023-02-15T16:47:43;0.40;99.90
20057;DHT22;10189;49.546;7.906;2023-02-15T16:50:20;0.40;99.90
20057;DHT22;10189;49.546;7.906;2023-02-15T16:52:51;0.30;99.90
20057;DHT22;10189;49.546;7.906;2023-02-15T16:55:25;0.30;99.90
20057;DHT22;10189;49.546;7.906;2023-02-15T16:57:57;0.20;99.90
20057;DHT22;10189;49.546;7.906;2023-02-15T17:00:31;0.10;99.90
20057;DHT22;10189;49.546;7.906;2023-02-15T17:03:04;0.10;99.90
20057;DHT22;10189;49.546;7.906;2023-02-15T17:05:56;0.00;99.90
20057;DHT22;10189;49.546;7.906;2023-02-15T17:08:41;0.10;99.90
20057;DHT22;10189;49.546;7.906;2023-02-15T17:11:21;0.10;99.90
20057;DHT22;10189;49.546;7.906;2023-02-15T17:16:32;-0.10;99.90
20057;DHT22;10189;49.546;7.906;2023-02-15T17:19:02;0.00;99.90
20057;DHT22;10189;49.546;7.906;2023-02-15T17:21:42;0.00;99.90
20057;DHT22;10189;49.546;7.906;2023-02-15T17:24:18;-0.10;99.90
20057;DHT22;10189;49.546;7.906;2023-02-15T17:26:54;-0.10;99.90
20057;DHT22;10189;49.546;7.906;2023-02-15T17:29:44;-0.10;99.90
20057;DHT22;10189;49.546;7.906;2023-02-15T17:32:19;-0.10;99.90
20057;DHT22;10189;49.546;7.906;2023-02-15T17:35:19;-0.20;99.90
20057;DHT22;10189;49.546;7.906;2023-02-15T17:37:49;-0.20;99.90
20057;DHT22;10189;49.546;7.906;2023-02-15T17:40:30;-0.20;99.90
20057;DHT22;10189;49.546;7.906;2023-02-15T17:42:58;-0.10;99.90
20057;DHT22;10189;49.546;7.906;2023-02-15T17:45:30;-0.10;99.90
20057;DHT22;10189;49.546;7.906;2023-02-15T17:48:02;-0.10;99.90
20057;DHT22;10189;49.546;7.906;2023-02-15T17:50:30;-0.10;99.90
20057;DHT22;10189;49.546;7.906;2023-02-15T17:52:59;-0.20;99.90
20057;DHT22;10189;49.546;7.906;2023-02-15T17:55:26;-0.20;99.90
20057;DHT22;10189;49.546;7.906;2023-02-15T17:58:14;-0.20;99.90
20057;DHT22;10189;49.546;7.906;2023-02-15T18:00:46;-0.30;99.90
20057;DHT22;10189;49.546;7.906;2023-02-15T18:03:45;-0.30;99.90
20057;DHT22;10189;49.546;7.906;2023-02-15T18:06:35;-0.30;99.90
20057;DHT22;10189;49.546;7.906;2023-02-15T18:09:24;-0.30;99.90
20057;DHT22;10189;49.546;7.906;2023-02-15T18:12:30;-0.40;99.90
20057;DHT22;10189;49.546;7.906;2023-02-15T18:14:58;-0.50;99.90
20057;DHT22;10189;49.546;7.906;2023-02-15T18:17:33;-0.50;99.90
20057;DHT22;10189;49.546;7.906;2023-02-15T18:20:02;-0.50;99.90
20057;DHT22;10189;49.546;7.906;2023-02-15T18:22:31;-0.50;99.90
20057;DHT22;10189;49.546;7.906;2023-02-15T18:24:58;-0.50;99.90
20057;DHT22;10189;49.546;7.906;2023-02-15T18:27:24;-0.50;99.90
20057;DHT22;10189;49.546;7.906;2023-02-15T18:29:50;-0.50;99.90
20057;DHT22;10189;49.546;7.906;2023-02-15T18:32:20;-0.60;99.90
20057;DHT22;10189;49.546;7.906;2023-02-15T18:34:50;-0.60;99.90
20057;DHT22;10189;49.546;7.906;2023-02-15T18:37:20;-0.60;99.90
20057;DHT22;10189;49.546;7.906;2023-02-15T18:39:48;-0.70;99.90
20057;DHT22;10189;49.546;7.906;2023-02-15T18:42:20;-0.70;99.90
20057;DHT22;10189;49.546;7.906;2023-02-15T18:44:58;-0.70;99.90
20057;DHT22;10189;49.546;7.906;2023-02-15T18:47:27;-0.80;99.90
20057;DHT22;10189;49.546;7.906;2023-02-15T18:49:53;-0.80;99.90
20057;DHT22;10189;49.546;7.906;2023-02-15T18:52:21;-0.90;99.90
20057;DHT22;10189;49.546;7.906;2023-02-15T18:54:54;-1.00;99.90
20057;DHT22;10189;49.546;7.906;2023-02-15T18:57:24;-1.10;99.90
20057;DHT22;10189;49.546;7.906;2023-02-15T18:59:51;-1.10;99.90
20057;DHT22;10189;49.546;7.906;2023-02-15T19:02:18;-1.10;99.90
20057;DHT22;10189;49.546;7.906;2023-02-15T19:04:45;-1.20;99.90
20057;DHT22;10189;49.546;7.906;2023-02-15T19:07:16;-1.20;99.90
20057;DHT22;10189;49.546;7.906;2023-02-15T19:09:59;-1.20;99.90
20057;DHT22;10189;49.546;7.906;2023-02-15T19:12:29;-1.20;99.90
20057;DHT22;10189;49.546;7.906;2023-02-15T19:14:55;-1.20;99.90
20057;DHT22;10189;49.546;7.906;2023-02-15T19:17:22;-1.20;99.90
20057;DHT22;10189;49.546;7.906;2023-02-15T19:19:50;-1.20;99.90
20057;DHT22;10189;49.546;7.906;2023-02-15T19:22:30;-1.30;99.90
20057;DHT22;10189;49.546;7.906;2023-02-15T19:25:00;-1.30;99.90
20057;DHT22;10189;49.546;7.906;2023-02-15T19:27:28;-1.30;99.90
20057;DHT22;10189;49.546;7.906;2023-02-15T19:30:01;-1.20;99.90
20057;DHT22;10189;49.546;7.906;2023-02-15T19:32:35;-1.30;99.90
20057;DHT22;10189;49.546;7.906;2023-02-15T19:35:01;-1.30;99.90
20057;DHT22;10189;49.546;7.906;2023-02-15T19:37:34;-1.30;99.90
20057;DHT22;10189;49.546;7.906;2023-02-15T19:40:07;-1.30;99.90
20057;DHT22;10189;49.546;7.906;2023-02-15T19:42:43;-1.40;99.90